createdAt,value
2022-12-20T00:00:11.438Z,1011.28
2022-12-20T00:01:11.543Z,1011.31
2022-12-20T00:02:11.585Z,1011.29
2022-12-20T00:03:11.510Z,1011.27
2022-12-20T00:04:11.353Z,1011.26
2022-12-20T00:05:11.216Z,1011.30
2022-12-20T00:06:11.343Z,1011.23
2022-12-20T00:07:11.696Z,1011.24
2022-12-20T00:08:11.196Z,1011.23
2022-12-20T00:09:11.485Z,1011.24
2022-12-20T00:10:11.355Z,1011.14
2022-12-20T00:11:11.362Z,1011.10
2022-12-20T00:12:11.266Z,1011.14
2022-12-20T00:13:11.295Z,1011.08
2022-12-20T00:14:11.177Z,1011.10
2022-12-20T00:15:11.321Z,1011.07
2022-12-20T00:16:11.177Z,1011.11
2022-12-20T00:17:11.202Z,1011.07
2022-12-20T00:18:11.111Z,1011.04
2022-12-20T00:19:11.052Z,1011.04
2022-12-20T00:20:11.212Z,1011.03
2022-12-20T00:21:11.159Z,1011.03
2022-12-20T00:22:11.116Z,1010.90
2022-12-20T00:23:11.086Z,1010.95
2022-12-20T00:24:11.577Z,1010.91
2022-12-20T00:25:11.236Z,1010.88
2022-12-20T00:26:11.049Z,1010.87
2022-12-20T00:27:11.098Z,1010.83
2022-12-20T00:28:11.062Z,1010.87
2022-12-20T00:29:11.171Z,1010.83
2022-12-20T00:30:11.334Z,1010.86
2022-12-20T00:31:10.997Z,1010.93
2022-12-20T00:32:11.019Z,1010.93
2022-12-20T00:33:11.005Z,1010.87
2022-12-20T00:34:10.967Z,1010.83
2022-12-20T00:35:11.007Z,1010.82
2022-12-20T00:36:10.899Z,1010.85
2022-12-20T00:37:10.915Z,1010.86
2022-12-20T00:38:10.913Z,1010.86
2022-12-20T00:39:10.828Z,1010.87
2022-12-20T00:40:11.538Z,1010.79
2022-12-20T00:41:11.057Z,1010.81
2022-12-20T00:42:11.083Z,1010.81
2022-12-20T00:43:11.060Z,1010.87
2022-12-20T00:44:10.882Z,1010.83
2022-12-20T00:45:10.965Z,1010.84
2022-12-20T00:46:10.879Z,1010.83
2022-12-20T00:47:10.817Z,1010.82
2022-12-20T00:48:10.853Z,1010.81
2022-12-20T00:49:10.780Z,1010.78
2022-12-20T00:50:10.837Z,1010.81
2022-12-20T00:51:10.788Z,1010.72
2022-12-20T00:52:10.777Z,1010.72
2022-12-20T00:53:11.480Z,1010.74
2022-12-20T00:54:10.687Z,1010.72
2022-12-20T00:55:10.813Z,1010.74
2022-12-20T00:56:10.678Z,1010.72
2022-12-20T00:57:10.765Z,1010.61
2022-12-20T00:58:10.621Z,1010.61
2022-12-20T00:59:10.635Z,1010.58
2022-12-20T01:00:10.624Z,1010.64
2022-12-20T01:01:11.531Z,1010.67
2022-12-20T01:02:10.701Z,1010.60
2022-12-20T01:03:10.760Z,1010.62
2022-12-20T01:04:10.613Z,1010.60
2022-12-20T01:05:10.583Z,1010.61
2022-12-20T01:06:10.558Z,1010.66
2022-12-20T01:07:10.550Z,1010.64
2022-12-20T01:08:10.490Z,1010.67
2022-12-20T01:09:10.592Z,1010.69
2022-12-20T01:10:10.522Z,1010.66
2022-12-20T01:11:10.508Z,1010.69
2022-12-20T01:12:10.462Z,1010.69
2022-12-20T01:13:10.459Z,1010.67
2022-12-20T01:14:10.442Z,1010.65
2022-12-20T01:15:10.523Z,1010.67
2022-12-20T01:16:10.426Z,1010.67
2022-12-20T01:17:10.471Z,1010.65
2022-12-20T01:18:10.396Z,1010.64
2022-12-20T01:19:10.413Z,1010.70
2022-12-20T01:20:10.446Z,1010.67
2022-12-20T01:21:10.407Z,1010.73
2022-12-20T01:22:10.403Z,1010.71
2022-12-20T01:23:10.337Z,1010.73
2022-12-20T01:24:10.378Z,1010.73
2022-12-20T01:25:10.320Z,1010.73
2022-12-20T01:26:10.324Z,1010.71
2022-12-20T01:27:10.319Z,1010.71
2022-12-20T01:28:10.333Z,1010.72
2022-12-20T01:29:10.343Z,1010.71
2022-12-20T01:30:10.267Z,1010.66
2022-12-20T01:31:10.357Z,1010.73
2022-12-20T01:32:10.324Z,1010.68
2022-12-20T01:33:10.233Z,1010.73
2022-12-20T01:34:10.239Z,1010.72
2022-12-20T01:35:10.242Z,1010.69
2022-12-20T01:36:10.192Z,1010.72
2022-12-20T01:37:10.248Z,1010.76
2022-12-20T01:38:10.180Z,1010.68
2022-12-20T01:39:10.178Z,1010.70
2022-12-20T01:40:10.212Z,1010.68
2022-12-20T01:41:10.180Z,1010.70
2022-12-20T01:42:10.142Z,1010.67
2022-12-20T01:43:10.122Z,1010.64
2022-12-20T01:44:10.101Z,1010.63
2022-12-20T01:45:10.921Z,1010.58
2022-12-20T01:46:10.212Z,1010.56
2022-12-20T01:47:10.124Z,1010.61
2022-12-20T01:48:10.070Z,1010.51
2022-12-20T01:49:10.109Z,1010.56
2022-12-20T01:50:10.070Z,1010.56
2022-12-20T01:51:10.122Z,1010.59
2022-12-20T01:52:10.016Z,1010.49
2022-12-20T01:53:09.999Z,1010.48
2022-12-20T01:54:10.024Z,1010.42
2022-12-20T01:55:10.123Z,1010.53
2022-12-20T01:56:10.021Z,1010.45
2022-12-20T01:57:09.952Z,1010.50
2022-12-20T01:58:09.977Z,1010.51
2022-12-20T01:59:10.015Z,1010.50
2022-12-20T02:00:10.131Z,1010.49
2022-12-20T02:01:10.004Z,1010.51
2022-12-20T02:02:10.103Z,1010.49
2022-12-20T02:03:10.043Z,1010.45
2022-12-20T02:04:09.869Z,1010.48
2022-12-20T02:05:09.898Z,1010.41
2022-12-20T02:06:09.827Z,1010.34
2022-12-20T02:07:09.849Z,1010.38
2022-12-20T02:08:09.834Z,1010.34
2022-12-20T02:09:09.808Z,1010.33
2022-12-20T02:10:09.833Z,1010.41
2022-12-20T02:11:09.802Z,1010.42
2022-12-20T02:12:09.804Z,1010.31
2022-12-20T02:13:09.796Z,1010.43
2022-12-20T02:14:09.762Z,1010.32
2022-12-20T02:15:09.741Z,1010.33
2022-12-20T02:16:09.783Z,1010.38
2022-12-20T02:17:09.890Z,1010.41
2022-12-20T02:18:09.718Z,1010.35
2022-12-20T02:19:09.695Z,1010.37
2022-12-20T02:20:09.705Z,1010.41
2022-12-20T02:21:09.669Z,1010.29
2022-12-20T02:22:09.694Z,1010.37
2022-12-20T02:23:09.684Z,1010.34
2022-12-20T02:24:09.659Z,1010.31
2022-12-20T02:25:09.629Z,1010.29
2022-12-20T02:26:09.630Z,1010.28
2022-12-20T02:27:09.598Z,1010.33
2022-12-20T02:28:09.635Z,1010.27
2022-12-20T02:29:09.592Z,1010.26
2022-12-20T02:30:09.602Z,1010.27
2022-12-20T02:31:09.564Z,1010.22
2022-12-20T02:32:09.758Z,1010.17
2022-12-20T02:33:09.546Z,1010.20
2022-12-20T02:34:09.544Z,1010.17
2022-12-20T02:35:09.512Z,1010.12
2022-12-20T02:36:09.549Z,1010.19
2022-12-20T02:37:09.732Z,1010.15
2022-12-20T02:38:09.525Z,1010.18
2022-12-20T02:39:09.505Z,1010.14
2022-12-20T02:40:09.483Z,1010.11
2022-12-20T02:41:09.446Z,1010.08
2022-12-20T02:42:09.482Z,1010.07
2022-12-20T02:43:09.422Z,1010.14
2022-12-20T02:44:09.441Z,1010.16
2022-12-20T02:45:09.417Z,1010.21
2022-12-20T02:46:09.455Z,1010.11
2022-12-20T02:47:09.438Z,1010.08
2022-12-20T02:48:09.438Z,1010.03
2022-12-20T02:49:09.374Z,1010.00
2022-12-20T02:50:09.376Z,1009.98
2022-12-20T02:51:09.401Z,1010.00
2022-12-20T02:52:09.479Z,1009.91
2022-12-20T02:53:09.355Z,1009.95
2022-12-20T02:54:09.326Z,1009.97
2022-12-20T02:55:09.317Z,1009.96
2022-12-20T02:56:09.300Z,1009.99
2022-12-20T02:57:09.314Z,1009.92
2022-12-20T02:58:09.267Z,1009.95
2022-12-20T02:59:09.241Z,1010.05
2022-12-20T03:00:09.257Z,1010.00
2022-12-20T03:01:09.268Z,1009.96
2022-12-20T03:02:09.464Z,1009.97
2022-12-20T03:03:09.378Z,1009.96
2022-12-20T03:04:09.227Z,1009.97
2022-12-20T03:05:09.184Z,1009.89
2022-12-20T03:06:09.185Z,1009.99
2022-12-20T03:07:09.189Z,1009.94
2022-12-20T03:08:09.246Z,1009.95
2022-12-20T03:09:09.228Z,1009.91
2022-12-20T03:10:09.180Z,1009.98
2022-12-20T03:11:09.213Z,1009.97
2022-12-20T03:12:09.139Z,1009.94
2022-12-20T03:13:09.384Z,1009.90
2022-12-20T03:14:09.096Z,1009.93
2022-12-20T03:15:09.069Z,1009.93
2022-12-20T03:16:09.067Z,1009.94
2022-12-20T03:17:09.210Z,1009.92
2022-12-20T03:18:09.054Z,1009.92
2022-12-20T03:19:09.058Z,1009.90
2022-12-20T03:20:09.027Z,1009.93
2022-12-20T03:21:09.004Z,1009.97
2022-12-20T03:22:09.026Z,1009.91
2022-12-20T03:23:08.983Z,1009.92
2022-12-20T03:24:09.016Z,1009.90
2022-12-20T03:25:08.959Z,1009.86
2022-12-20T03:26:08.977Z,1009.92
2022-12-20T03:27:08.982Z,1009.92
2022-12-20T03:28:08.943Z,1009.82
2022-12-20T03:29:08.920Z,1009.86
2022-12-20T03:30:08.946Z,1009.83
2022-12-20T03:31:09.006Z,1009.86
2022-12-20T03:32:08.926Z,1009.82
2022-12-20T03:33:08.875Z,1009.90
2022-12-20T03:34:08.884Z,1009.81
2022-12-20T03:35:08.856Z,1009.88
2022-12-20T03:36:08.898Z,1009.88
2022-12-20T03:37:08.839Z,1009.93
2022-12-20T03:38:08.849Z,1009.91
2022-12-20T03:39:08.810Z,1009.95
2022-12-20T03:40:08.842Z,1009.85
2022-12-20T03:41:08.796Z,1009.94
2022-12-20T03:42:08.787Z,1009.92
2022-12-20T03:43:08.779Z,1009.91
2022-12-20T03:44:08.794Z,1009.84
2022-12-20T03:45:08.792Z,1009.91
2022-12-20T03:46:08.760Z,1009.90
2022-12-20T03:47:08.715Z,1009.87
2022-12-20T03:48:08.721Z,1009.89
2022-12-20T03:49:08.743Z,1009.96
2022-12-20T03:50:08.693Z,1009.89
2022-12-20T03:51:08.668Z,1009.86
2022-12-20T03:52:08.666Z,1009.87
2022-12-20T03:53:08.650Z,1009.92
2022-12-20T03:54:08.661Z,1009.86
2022-12-20T03:55:08.664Z,1009.99
2022-12-20T03:56:08.631Z,1009.90
2022-12-20T03:57:08.615Z,1009.95
2022-12-20T03:58:08.640Z,1009.86
2022-12-20T03:59:08.572Z,1009.91
2022-12-20T04:00:08.604Z,1009.91
2022-12-20T04:01:08.637Z,1009.89
2022-12-20T04:02:08.680Z,1009.93
2022-12-20T04:03:08.653Z,1009.92
2022-12-20T04:04:08.572Z,1009.86
2022-12-20T04:05:08.536Z,1009.83
2022-12-20T04:06:08.523Z,1009.83
2022-12-20T04:07:08.496Z,1009.77
2022-12-20T04:08:08.527Z,1009.86
2022-12-20T04:09:08.528Z,1009.74
2022-12-20T04:10:08.488Z,1009.73
2022-12-20T04:11:08.439Z,1009.68
2022-12-20T04:12:08.452Z,1009.67
2022-12-20T04:13:08.464Z,1009.77
2022-12-20T04:14:08.482Z,1009.76
2022-12-20T04:15:08.416Z,1009.73
2022-12-20T04:16:08.494Z,1009.72
2022-12-20T04:17:08.395Z,1009.76
2022-12-20T04:18:08.388Z,1009.73
2022-12-20T04:19:08.411Z,1009.68
2022-12-20T04:20:08.368Z,1009.71
2022-12-20T04:21:08.349Z,1009.65
2022-12-20T04:22:08.336Z,1009.61
2022-12-20T04:23:08.331Z,1009.59
2022-12-20T04:24:08.318Z,1009.68
2022-12-20T04:25:08.374Z,1009.62
2022-12-20T04:26:08.306Z,1009.59
2022-12-20T04:27:08.268Z,1009.52
2022-12-20T04:28:08.366Z,1009.55
2022-12-20T04:29:08.238Z,1009.55
2022-12-20T04:30:08.281Z,1009.47
2022-12-20T04:31:08.268Z,1009.51
2022-12-20T04:32:08.225Z,1009.47
2022-12-20T04:33:08.221Z,1009.55
2022-12-20T04:34:08.216Z,1009.55
2022-12-20T04:35:08.181Z,1009.66
2022-12-20T04:36:08.221Z,1009.64
2022-12-20T04:37:08.179Z,1009.57
2022-12-20T04:38:08.166Z,1009.61
2022-12-20T04:39:08.150Z,1009.62
2022-12-20T04:40:08.193Z,1009.57
2022-12-20T04:41:08.135Z,1009.65
2022-12-20T04:42:08.124Z,1009.72
2022-12-20T04:43:08.119Z,1009.65
2022-12-20T04:44:08.115Z,1009.63
2022-12-20T04:45:08.129Z,1009.70
2022-12-20T04:46:08.135Z,1009.66
2022-12-20T04:47:08.093Z,1009.59
2022-12-20T04:48:36.779Z,1009.60
2022-12-20T04:49:08.033Z,1009.67
2022-12-20T04:50:08.055Z,1009.64
2022-12-20T04:51:08.048Z,1009.68
2022-12-20T04:52:08.010Z,1009.65
2022-12-20T04:53:07.986Z,1009.63
2022-12-20T04:54:07.990Z,1009.58
2022-12-20T04:55:07.966Z,1009.61
2022-12-20T04:56:08.001Z,1009.60
2022-12-20T04:57:07.971Z,1009.61
2022-12-20T04:58:08.074Z,1009.59
2022-12-20T04:59:07.920Z,1009.64
2022-12-20T05:00:07.914Z,1009.60
2022-12-20T05:01:07.941Z,1009.63
2022-12-20T05:02:08.005Z,1009.59
2022-12-20T05:03:08.031Z,1009.58
2022-12-20T05:04:07.916Z,1009.59
2022-12-20T05:05:07.878Z,1009.64
2022-12-20T05:06:07.857Z,1009.62
2022-12-20T05:07:07.827Z,1009.64
2022-12-20T05:08:07.846Z,1009.60
2022-12-20T05:09:07.865Z,1009.58
2022-12-20T05:10:07.833Z,1009.59
2022-12-20T05:11:07.795Z,1009.54
2022-12-20T05:12:07.781Z,1009.63
2022-12-20T05:13:09.516Z,1009.53
2022-12-20T05:14:07.766Z,1009.55
2022-12-20T05:15:07.790Z,1009.53
2022-12-20T05:16:07.790Z,1009.50
2022-12-20T05:17:07.717Z,1009.53
2022-12-20T05:18:07.740Z,1009.50
2022-12-20T05:19:07.694Z,1009.46
2022-12-20T05:20:07.717Z,1009.42
2022-12-20T05:21:07.703Z,1009.44
2022-12-20T05:22:07.681Z,1009.45
2022-12-20T05:23:07.675Z,1009.44
2022-12-20T05:24:07.683Z,1009.48
2022-12-20T05:25:07.632Z,1009.47
2022-12-20T05:26:07.654Z,1009.46
2022-12-20T05:27:07.599Z,1009.44
2022-12-20T05:28:07.656Z,1009.40
2022-12-20T05:29:07.594Z,1009.45
2022-12-20T05:30:07.601Z,1009.38
2022-12-20T05:31:07.604Z,1009.43
2022-12-20T05:32:07.589Z,1009.42
2022-12-20T05:33:07.538Z,1009.39
2022-12-20T05:34:07.538Z,1009.47
2022-12-20T05:35:07.565Z,1009.42
2022-12-20T05:36:07.587Z,1009.41
2022-12-20T05:37:07.548Z,1009.46
2022-12-20T05:38:07.491Z,1009.45
2022-12-20T06:57:38.487Z,1009.39
2022-12-20T06:58:39.483Z,1009.40
2022-12-20T06:59:39.621Z,1009.34
2022-12-20T07:00:39.450Z,1009.42
2022-12-20T07:01:39.758Z,1009.34
2022-12-20T07:02:39.581Z,1009.33
2022-12-20T07:03:39.345Z,1009.37
2022-12-20T07:04:39.467Z,1009.35
2022-12-20T07:05:39.297Z,1009.30
2022-12-20T07:06:39.290Z,1009.31
2022-12-20T07:07:44.765Z,1009.30
2022-12-20T07:08:39.264Z,1009.32
2022-12-20T07:09:39.241Z,1009.34
2022-12-20T07:10:39.523Z,1009.34
2022-12-20T07:11:39.225Z,1009.34
2022-12-20T07:12:43.881Z,1009.27
2022-12-20T07:13:39.306Z,1009.30
2022-12-20T07:14:39.244Z,1009.27
2022-12-20T07:15:39.174Z,1009.38
2022-12-20T07:16:39.410Z,1009.31
2022-12-20T07:17:39.262Z,1009.34
2022-12-20T07:18:39.162Z,1009.36
2022-12-20T07:19:39.175Z,1009.30
2022-12-20T07:20:39.118Z,1009.27
2022-12-20T07:21:39.189Z,1009.29
2022-12-20T07:22:39.104Z,1009.28
2022-12-20T07:23:39.341Z,1009.41
2022-12-20T07:24:39.236Z,1009.31
2022-12-20T07:25:39.063Z,1009.33
2022-12-20T07:26:39.070Z,1009.27
2022-12-20T07:27:39.266Z,1009.39
2022-12-20T07:28:39.145Z,1009.36
2022-12-20T07:29:39.059Z,1009.35
2022-12-20T07:30:39.084Z,1009.36
2022-12-20T07:31:39.192Z,1009.31
2022-12-20T07:32:38.999Z,1009.34
2022-12-20T07:33:39.057Z,1009.34
2022-12-20T07:34:39.015Z,1009.32
2022-12-20T07:35:39.225Z,1009.28
2022-12-20T07:36:39.034Z,1009.24
2022-12-20T07:37:39.129Z,1009.18
2022-12-20T07:38:38.927Z,1009.16
2022-12-20T07:39:38.935Z,1009.20
2022-12-20T07:40:38.938Z,1009.23
2022-12-20T07:41:38.881Z,1009.20
2022-12-20T07:42:44.523Z,1009.19
2022-12-20T07:43:38.875Z,1009.23
2022-12-20T07:44:38.895Z,1009.22
2022-12-20T07:45:38.887Z,1009.18
2022-12-20T07:46:38.913Z,1009.26
2022-12-20T07:47:38.841Z,1009.27
2022-12-20T07:48:38.814Z,1009.28
2022-12-20T07:49:38.881Z,1009.28
2022-12-20T07:50:38.832Z,1009.31
2022-12-20T07:51:38.778Z,1009.23
2022-12-20T07:52:38.810Z,1009.18
2022-12-20T07:53:38.741Z,1009.20
2022-12-20T07:54:38.751Z,1009.14
2022-12-20T07:55:40.584Z,1009.22
2022-12-20T07:56:41.445Z,1009.15
2022-12-20T07:57:38.752Z,1009.22
2022-12-20T07:58:38.712Z,1009.21
2022-12-20T07:59:38.691Z,1009.22
2022-12-20T08:00:38.681Z,1009.14
2022-12-20T08:01:38.784Z,1009.23
2022-12-20T08:02:38.954Z,1009.23
2022-12-20T08:03:38.927Z,1009.25
2022-12-20T08:04:38.903Z,1009.16
2022-12-20T08:05:38.616Z,1009.24
2022-12-20T08:06:38.862Z,1009.21
2022-12-20T08:07:38.603Z,1009.20
2022-12-20T08:08:38.605Z,1009.26
2022-12-20T08:09:38.596Z,1009.23
2022-12-20T08:10:38.699Z,1009.18
2022-12-20T08:11:38.690Z,1009.24
2022-12-20T08:12:38.552Z,1009.19
2022-12-20T08:13:45.688Z,1009.23
2022-12-20T08:14:38.525Z,1009.18
2022-12-20T08:15:38.541Z,1009.18
2022-12-20T08:16:38.607Z,1009.14
2022-12-20T08:17:38.482Z,1009.13
2022-12-20T08:18:38.799Z,1009.12
2022-12-20T08:19:38.490Z,1009.16
2022-12-20T08:20:38.496Z,1009.14
2022-12-20T08:21:38.494Z,1009.15
2022-12-20T08:22:38.589Z,1009.15
2022-12-20T08:23:38.450Z,1009.13
2022-12-20T08:24:38.416Z,1009.15
2022-12-20T08:25:41.789Z,1009.09
2022-12-20T08:26:38.411Z,1009.11
2022-12-20T08:27:38.380Z,1009.16
2022-12-20T08:28:38.423Z,1009.09
2022-12-20T08:29:38.340Z,1009.09
2022-12-20T08:30:38.434Z,1009.02
2022-12-20T08:31:38.382Z,1009.05
2022-12-20T08:32:38.327Z,1009.09
2022-12-20T08:33:38.327Z,1009.07
2022-12-20T08:34:38.418Z,1009.07
2022-12-20T08:35:38.280Z,1009.09
2022-12-20T08:36:38.310Z,1009.06
2022-12-20T08:37:38.259Z,1009.03
2022-12-20T08:38:38.284Z,1009.05
2022-12-20T08:39:38.263Z,1009.07
2022-12-20T08:40:38.253Z,1009.06
2022-12-20T08:41:38.225Z,1009.07
2022-12-20T08:42:38.228Z,1009.08
2022-12-20T08:43:38.813Z,1009.04
2022-12-20T08:44:38.199Z,1009.06
2022-12-20T08:45:38.188Z,1009.11
2022-12-20T08:46:38.297Z,1009.09
2022-12-20T08:47:38.135Z,1009.06
2022-12-20T08:48:38.179Z,1009.06
2022-12-20T08:49:42.447Z,1009.04
2022-12-20T08:50:38.127Z,1009.03
2022-12-20T08:51:38.227Z,1009.05
2022-12-20T08:52:38.342Z,1009.01
2022-12-20T08:53:38.111Z,1009.00
2022-12-20T08:54:38.086Z,1008.97
2022-12-20T08:55:38.217Z,1009.03
2022-12-20T08:56:38.090Z,1009.08
2022-12-20T08:57:38.051Z,1009.14
2022-12-20T08:58:38.026Z,1009.09
2022-12-20T08:59:38.037Z,1009.02
2022-12-20T09:00:38.014Z,1009.02
2022-12-20T09:01:38.215Z,1009.03
2022-12-20T09:02:38.316Z,1009.01
2022-12-20T09:03:38.184Z,1008.97
2022-12-20T09:04:38.151Z,1009.00
2022-12-20T09:05:38.262Z,1008.95
2022-12-20T09:06:38.099Z,1008.97
2022-12-20T09:07:38.408Z,1008.97
2022-12-20T09:08:38.070Z,1009.03
2022-12-20T09:09:38.897Z,1008.99
2022-12-20T09:10:37.940Z,1009.02
2022-12-20T09:11:38.012Z,1008.97
2022-12-20T09:12:38.089Z,1009.00
2022-12-20T09:13:43.605Z,1009.03
2022-12-20T09:14:38.118Z,1008.99
2022-12-20T09:15:37.867Z,1009.03
2022-12-20T09:16:37.817Z,1009.04
2022-12-20T09:17:37.829Z,1009.05
2022-12-20T09:18:37.863Z,1009.02
2022-12-20T09:19:37.780Z,1009.00
2022-12-20T09:20:37.811Z,1008.96
2022-12-20T09:21:37.774Z,1008.99
2022-12-20T09:22:37.764Z,1008.94
2022-12-20T09:23:37.773Z,1008.93
2022-12-20T09:24:37.791Z,1008.95
2022-12-20T09:25:37.795Z,1008.91
2022-12-20T09:26:37.946Z,1008.91
2022-12-20T09:27:37.738Z,1008.87
2022-12-20T09:28:37.702Z,1008.89
2022-12-20T09:29:37.712Z,1008.86
2022-12-20T09:30:37.724Z,1008.85
2022-12-20T09:31:37.804Z,1008.80
2022-12-20T09:32:37.751Z,1008.72
2022-12-20T09:33:37.660Z,1008.67
2022-12-20T09:34:37.632Z,1008.69
2022-12-20T09:35:37.616Z,1008.63
2022-12-20T09:36:37.715Z,1008.66
2022-12-20T09:37:37.639Z,1008.65
2022-12-20T09:38:38.483Z,1008.69
2022-12-20T09:39:37.794Z,1008.65
2022-12-20T09:40:37.709Z,1008.72
2022-12-20T09:41:37.719Z,1008.71
2022-12-20T09:42:37.616Z,1008.67
2022-12-20T09:43:37.584Z,1008.71
2022-12-20T09:44:37.722Z,1008.68
2022-12-20T09:45:38.414Z,1008.69
2022-12-20T09:46:37.537Z,1008.66
2022-12-20T09:47:37.508Z,1008.72
2022-12-20T09:48:37.516Z,1008.66
2022-12-20T09:49:37.479Z,1008.70
2022-12-20T09:50:37.594Z,1008.69
2022-12-20T09:51:37.427Z,1008.68
2022-12-20T09:52:37.458Z,1008.71
2022-12-20T09:53:37.397Z,1008.69
2022-12-20T09:54:37.450Z,1008.58
2022-12-20T09:55:37.445Z,1008.52
2022-12-20T09:56:37.451Z,1008.60
2022-12-20T09:57:37.459Z,1008.59
2022-12-20T09:58:37.396Z,1008.49
2022-12-20T09:59:41.348Z,1008.45
2022-12-20T10:00:37.406Z,1008.45
2022-12-20T10:01:39.897Z,1008.50
2022-12-20T10:02:58.804Z,1008.51
2022-12-20T10:03:37.521Z,1008.54
2022-12-20T10:04:37.771Z,1008.51
2022-12-20T10:05:41.448Z,1008.53
2022-12-20T10:06:37.265Z,1008.45
2022-12-20T10:07:37.249Z,1008.42
2022-12-20T10:08:37.269Z,1008.37
2022-12-20T10:09:37.316Z,1008.43
2022-12-20T10:10:37.226Z,1008.39
2022-12-20T10:11:43.352Z,1008.40
2022-12-20T10:12:37.358Z,1008.35
2022-12-20T10:13:37.268Z,1008.35
2022-12-20T10:14:37.235Z,1008.38
2022-12-20T10:15:37.173Z,1008.31
2022-12-20T10:16:37.303Z,1008.30
2022-12-20T10:17:37.290Z,1008.23
2022-12-20T10:18:37.197Z,1008.26
2022-12-20T10:19:37.221Z,1008.19
2022-12-20T10:20:37.107Z,1008.18
2022-12-20T10:21:37.127Z,1008.21
2022-12-20T10:22:37.092Z,1008.13
2022-12-20T10:23:37.100Z,1008.16
2022-12-20T10:24:37.123Z,1008.15
2022-12-20T10:25:37.070Z,1008.12
2022-12-20T10:26:37.130Z,1008.07
2022-12-20T10:27:37.076Z,1008.03
2022-12-20T10:28:37.947Z,1008.09
2022-12-20T10:29:37.026Z,1007.98
2022-12-20T10:30:37.031Z,1008.00
2022-12-20T10:31:37.061Z,1008.05
2022-12-20T10:32:37.097Z,1007.99
2022-12-20T10:33:37.027Z,1008.05
2022-12-20T10:34:41.020Z,1008.06
2022-12-20T10:35:36.959Z,1008.02
2022-12-20T10:36:36.973Z,1007.96
2022-12-20T10:37:37.106Z,1007.98
2022-12-20T10:38:36.907Z,1007.96
2022-12-20T10:39:36.920Z,1008.01
2022-12-20T10:41:10.284Z,1008.04
2022-12-20T10:41:36.877Z,1008.03
2022-12-20T10:42:36.871Z,1008.03
2022-12-20T10:43:36.937Z,1007.98
2022-12-20T10:44:36.917Z,1007.96
2022-12-20T10:45:36.811Z,1007.92
2022-12-20T10:46:36.937Z,1008.01
2022-12-20T10:47:36.839Z,1008.03
2022-12-20T10:48:36.859Z,1008.05
2022-12-20T10:49:36.829Z,1008.00
2022-12-20T10:50:36.759Z,1008.03
2022-12-20T10:51:36.922Z,1007.97
2022-12-20T10:52:36.778Z,1007.91
2022-12-20T10:53:36.869Z,1007.82
2022-12-20T10:54:36.814Z,1007.84
2022-12-20T10:55:36.775Z,1007.85
2022-12-20T10:56:36.716Z,1007.83
2022-12-20T10:57:36.956Z,1007.81
2022-12-20T10:58:36.714Z,1007.82
2022-12-20T10:59:36.745Z,1007.77
2022-12-20T11:00:36.933Z,1007.75
2022-12-20T11:01:36.876Z,1007.77
2022-12-20T11:02:41.505Z,1007.66
2022-12-20T11:03:36.797Z,1007.69
2022-12-20T11:04:36.657Z,1007.71
2022-12-20T11:05:36.640Z,1007.66
2022-12-20T11:06:36.586Z,1007.75
2022-12-20T11:07:36.628Z,1007.78
2022-12-20T11:08:44.932Z,1007.82
2022-12-20T11:09:36.620Z,1007.83
2022-12-20T11:10:36.572Z,1007.84
2022-12-20T11:11:36.607Z,1007.75
2022-12-20T11:12:36.518Z,1007.91
2022-12-20T11:13:36.552Z,1007.96
2022-12-20T11:14:39.667Z,1007.86
2022-12-20T11:15:36.650Z,1007.96
2022-12-20T11:16:36.667Z,1007.92
2022-12-20T11:17:36.522Z,1007.99
2022-12-20T11:18:36.447Z,1007.88
2022-12-20T11:19:36.455Z,1007.97
2022-12-20T11:20:36.457Z,1007.91
2022-12-20T11:21:36.555Z,1007.93
2022-12-20T11:22:36.409Z,1007.95
2022-12-20T11:23:36.422Z,1007.85
2022-12-20T11:24:36.383Z,1007.93
2022-12-20T11:25:36.425Z,1007.88
2022-12-20T11:26:37.292Z,1007.87
2022-12-20T11:27:36.384Z,1007.83
2022-12-20T11:28:36.334Z,1007.83
2022-12-20T11:29:36.352Z,1007.80
2022-12-20T11:30:36.353Z,1007.84
2022-12-20T11:31:36.517Z,1007.79
2022-12-20T11:32:36.293Z,1007.79
2022-12-20T11:33:36.294Z,1007.79
2022-12-20T11:34:36.316Z,1007.78
2022-12-20T11:35:36.281Z,1007.72
2022-12-20T11:36:36.300Z,1007.79
2022-12-20T11:37:36.307Z,1007.77
2022-12-20T11:38:36.242Z,1007.75
2022-12-20T11:39:36.269Z,1007.67
2022-12-20T11:40:36.452Z,1007.65
2022-12-20T11:41:36.202Z,1007.61
2022-12-20T11:42:36.191Z,1007.57
2022-12-20T11:43:48.089Z,1007.66
2022-12-20T11:44:36.252Z,1007.63
2022-12-20T11:45:36.163Z,1007.63
2022-12-20T11:46:36.195Z,1007.57
2022-12-20T11:47:36.147Z,1007.58
2022-12-20T11:48:36.149Z,1007.62
2022-12-20T11:49:36.131Z,1007.63
2022-12-20T11:50:36.096Z,1007.63
2022-12-20T11:51:36.132Z,1007.56
2022-12-20T11:52:36.079Z,1007.54
2022-12-20T11:53:36.119Z,1007.56
2022-12-20T11:54:36.043Z,1007.52
2022-12-20T11:55:36.280Z,1007.51
2022-12-20T11:56:41.889Z,1007.57
2022-12-20T11:58:01.721Z,1007.47
2022-12-20T11:58:36.037Z,1007.52
2022-12-20T11:59:36.857Z,1007.51
2022-12-20T12:00:35.976Z,1007.54
2022-12-20T12:01:36.134Z,1007.59
2022-12-20T12:02:36.140Z,1007.55
2022-12-20T12:03:35.996Z,1007.49
2022-12-20T12:04:36.020Z,1007.49
2022-12-20T12:05:35.965Z,1007.45
2022-12-20T12:06:35.926Z,1007.40
2022-12-20T12:07:35.961Z,1007.47
2022-12-20T12:08:36.108Z,1007.42
2022-12-20T12:09:35.940Z,1007.44
2022-12-20T12:10:35.928Z,1007.46
2022-12-20T12:12:35.899Z,1007.52
2022-12-20T12:13:35.841Z,1007.45
2022-12-20T12:14:35.845Z,1007.51
2022-12-20T12:15:35.840Z,1007.59
2022-12-20T12:16:35.881Z,1007.49
2022-12-20T12:17:35.794Z,1007.51
2022-12-20T12:18:35.778Z,1007.50
2022-12-20T12:19:35.781Z,1007.55
2022-12-20T12:20:35.755Z,1007.53
2022-12-20T12:21:35.795Z,1007.62
2022-12-20T12:22:35.738Z,1007.49
2022-12-20T12:23:35.777Z,1007.56
2022-12-20T12:24:35.706Z,1007.54
2022-12-20T12:25:35.741Z,1007.61
2022-12-20T12:26:35.692Z,1007.58
2022-12-20T12:27:35.691Z,1007.53
2022-12-20T12:28:35.675Z,1007.58
2022-12-20T12:29:35.699Z,1007.61
2022-12-20T12:30:35.661Z,1007.58
2022-12-20T12:31:35.686Z,1007.55
2022-12-20T12:32:35.627Z,1007.59
2022-12-20T12:33:38.827Z,1007.52
2022-12-20T12:34:35.637Z,1007.49
2022-12-20T12:35:35.621Z,1007.46
2022-12-20T12:36:35.588Z,1007.51
2022-12-20T12:37:35.600Z,1007.49
2022-12-20T12:38:35.564Z,1007.47
2022-12-20T12:39:35.583Z,1007.51
2022-12-20T12:40:35.556Z,1007.43
2022-12-20T12:41:35.539Z,1007.45
2022-12-20T12:42:35.524Z,1007.38
2022-12-20T12:43:35.520Z,1007.47
2022-12-20T12:44:35.510Z,1007.51
2022-12-20T12:45:35.619Z,1007.38
2022-12-20T12:46:35.563Z,1007.35
2022-12-20T12:47:35.504Z,1007.37
2022-12-20T12:48:35.636Z,1007.36
2022-12-20T12:49:35.439Z,1007.34
2022-12-20T12:50:35.452Z,1007.34
2022-12-20T12:51:35.416Z,1007.35
2022-12-20T12:52:36.051Z,1007.36
2022-12-20T12:53:35.433Z,1007.37
2022-12-20T12:54:35.375Z,1007.44
2022-12-20T12:55:35.375Z,1007.30
2022-12-20T12:56:43.714Z,1007.32
2022-12-20T12:57:35.360Z,1007.37
2022-12-20T12:58:35.405Z,1007.39
2022-12-20T12:59:36.330Z,1007.34
2022-12-20T13:00:35.329Z,1007.34
2022-12-20T13:01:35.535Z,1007.27
2022-12-20T13:02:35.551Z,1007.28
2022-12-20T13:03:35.405Z,1007.30
2022-12-20T13:04:35.297Z,1007.29
2022-12-20T13:05:35.323Z,1007.29
2022-12-20T13:06:35.243Z,1007.26
2022-12-20T13:07:35.290Z,1007.29
2022-12-20T13:08:35.256Z,1007.28
2022-12-20T13:09:35.277Z,1007.26
2022-12-20T13:10:35.231Z,1007.25
2022-12-20T13:11:35.227Z,1007.23
2022-12-20T13:12:35.168Z,1007.18
2022-12-20T13:13:35.227Z,1007.17
2022-12-20T13:14:36.245Z,1007.21
2022-12-20T13:15:35.173Z,1007.17
2022-12-20T13:17:09.926Z,1007.17
2022-12-20T13:17:35.291Z,1007.30
2022-12-20T13:18:35.112Z,1007.24
2022-12-20T13:19:35.153Z,1007.22
2022-12-20T13:20:35.164Z,1007.27
2022-12-20T13:21:35.091Z,1007.24
2022-12-20T13:22:35.157Z,1007.21
2022-12-20T13:23:35.059Z,1007.27
2022-12-20T13:24:35.103Z,1007.23